sensor_id;sensor_type;location;lat;lon;timestamp;pressure;altitude;pressure_sealevel;temperature;humidity
23253;BME280;11795;47.054;15.408;2023-03-30T00:00:00;97680;;;4.6;62.9
23253;BME280;11795;47.054;15.408;2023-03-30T00:02:02;97680;;;4.5;63.5
23253;BME280;11795;47.054;15.408;2023-03-30T00:04:01;97670;;;4.7;63.0
23253;BME280;11795;47.054;15.408;2023-03-30T00:06:03;97670;;;4.6;63.4
23253;BME280;11795;47.054;15.408;2023-03-30T00:08:01;97670;;;4.5;63.8
23253;BME280;11795;47.054;15.408;2023-03-30T00:10:04;97660;;;4.6;63.5
23253;BME280;11795;47.054;15.408;2023-03-30T00:12:02;97660;;;4.5;64.6
23253;BME280;11795;47.054;15.408;2023-03-30T00:14:00;97650;;;4.7;63.8
23253;BME280;11795;47.054;15.408;2023-03-30T00:16:02;97650;;;4.6;64.0
23253;BME280;11795;47.054;15.408;2023-03-30T00:18:00;97650;;;4.6;64.3
23253;BME280;11795;47.054;15.408;2023-03-30T00:20:01;97650;;;4.7;63.7
23253;BME280;11795;47.054;15.408;2023-03-30T00:22:00;97650;;;4.6;64.0
23253;BME280;11795;47.054;15.408;2023-03-30T00:24:00;97650;;;4.8;63.4
23253;BME280;11795;47.054;15.408;2023-03-30T00:26:00;97650;;;4.7;63.8
23253;BME280;11795;47.054;15.408;2023-03-30T00:28:00;97650;;;4.7;64.0
23253;BME280;11795;47.054;15.408;2023-03-30T00:30:00;97640;;;4.8;63.4
23253;BME280;11795;47.054;15.408;2023-03-30T00:32:01;97650;;;4.7;63.6
23253;BME280;11795;47.054;15.408;2023-03-30T00:34:00;97640;;;5.0;63.1
23253;BME280;11795;47.054;15.408;2023-03-30T00:36:00;97630;;;4.8;63.5
23253;BME280;11795;47.054;15.408;2023-03-30T00:38:01;97630;;;4.8;63.6
23253;BME280;11795;47.054;15.408;2023-03-30T00:40:00;97640;;;4.9;63.2
23253;BME280;11795;47.054;15.408;2023-03-30T00:42:00;97630;;;4.8;63.6
23253;BME280;11795;47.054;15.408;2023-03-30T00:44:03;97630;;;5.1;63.0
23253;BME280;11795;47.054;15.408;2023-03-30T00:46:00;97630;;;4.9;63.5
23253;BME280;11795;47.054;15.408;2023-03-30T00:48:04;97630;;;4.9;64.0
23253;BME280;11795;47.054;15.408;2023-03-30T00:50:01;97630;;;5.0;63.6
23253;BME280;11795;47.054;15.408;2023-03-30T00:52:02;97630;;;4.9;63.9
23253;BME280;11795;47.054;15.408;2023-03-30T00:54:03;97620;;;5.1;63.3
23253;BME280;11795;47.054;15.408;2023-03-30T00:56:02;97620;;;4.9;63.6
23253;BME280;11795;47.054;15.408;2023-03-30T00:58:00;97630;;;4.9;63.7
23253;BME280;11795;47.054;15.408;2023-03-30T01:00:00;97630;;;5.0;63.0
23253;BME280;11795;47.054;15.408;2023-03-30T01:02:00;97630;;;4.9;63.3
23253;BME280;11795;47.054;15.408;2023-03-30T01:04:01;97620;;;5.2;62.8
23253;BME280;11795;47.054;15.408;2023-03-30T01:06:03;97630;;;5.0;63.3
23253;BME280;11795;47.054;15.408;2023-03-30T01:08:02;97620;;;5.0;63.4
23253;BME280;11795;47.054;15.408;2023-03-30T01:10:01;97620;;;5.1;62.6
23253;BME280;11795;47.054;15.408;2023-03-30T01:12:00;97610;;;5.1;62.8
23253;BME280;11795;47.054;15.408;2023-03-30T01:14:04;97610;;;5.3;62.3
23253;BME280;11795;47.054;15.408;2023-03-30T01:16:08;97620;;;5.1;62.8
23253;BME280;11795;47.054;15.408;2023-03-30T01:18:12;97620;;;5.1;62.8
23253;BME280;11795;47.054;15.408;2023-03-30T01:20:23;97620;;;5.2;62.6
23253;BME280;11795;47.054;15.408;2023-03-30T01:24:20;97620;;;5.3;62.6
23253;BME280;11795;47.054;15.408;2023-03-30T01:28:12;97630;;;5.0;63.4
23253;BME280;11795;47.054;15.408;2023-03-30T01:30:17;97620;;;5.1;62.9
23253;BME280;11795;47.054;15.408;2023-03-30T01:34:13;97600;;;5.2;63.0
23253;BME280;11795;47.054;15.408;2023-03-30T01:36:16;97590;;;5.0;63.7
23253;BME280;11795;47.054;15.408;2023-03-30T01:38:13;97590;;;5.0;64.1
23253;BME280;11795;47.054;15.408;2023-03-30T01:40:05;97590;;;5.2;63.6
23253;BME280;11795;47.054;15.408;2023-03-30T01:42:07;97590;;;5.1;64.2
23253;BME280;11795;47.054;15.408;2023-03-30T01:44:03;97580;;;5.3;63.9
23253;BME280;11795;47.054;15.408;2023-03-30T01:46:06;97580;;;5.2;64.6
23253;BME280;11795;47.054;15.408;2023-03-30T01:48:06;97580;;;5.1;65.3
23253;BME280;11795;47.054;15.408;2023-03-30T01:50:05;97580;;;5.2;65.6
23253;BME280;11795;47.054;15.408;2023-03-30T01:52:04;97570;;;5.1;66.0
23253;BME280;11795;47.054;15.408;2023-03-30T01:54:05;97570;;;5.3;65.6
23253;BME280;11795;47.054;15.408;2023-03-30T01:56:03;97570;;;5.2;66.1
23253;BME280;11795;47.054;15.408;2023-03-30T01:58:02;97570;;;5.1;66.8
23253;BME280;11795;47.054;15.408;2023-03-30T02:00:03;97560;;;5.2;66.6
23253;BME280;11795;47.054;15.408;2023-03-30T02:02:03;97560;;;5.1;67.0
23253;BME280;11795;47.054;15.408;2023-03-30T02:04:01;97560;;;5.3;67.1
23253;BME280;11795;47.054;15.408;2023-03-30T02:06:07;97560;;;5.2;67.1
23253;BME280;11795;47.054;15.408;2023-03-30T02:08:03;97560;;;5.1;67.4
23253;BME280;11795;47.054;15.408;2023-03-30T02:10:04;97550;;;5.3;66.7
23253;BME280;11795;47.054;15.408;2023-03-30T02:12:01;97560;;;5.1;67.2
23253;BME280;11795;47.054;15.408;2023-03-30T02:14:02;97550;;;5.3;66.7
23253;BME280;11795;47.054;15.408;2023-03-30T02:16:03;97550;;;5.1;67.1
23253;BME280;11795;47.054;15.408;2023-03-30T02:18:00;97560;;;5.0;67.7
23253;BME280;11795;47.054;15.408;2023-03-30T02:20:01;97560;;;5.2;67.2
23253;BME280;11795;47.054;15.408;2023-03-30T02:22:00;97560;;;5.1;67.6
23253;BME280;11795;47.054;15.408;2023-03-30T02:24:02;97560;;;5.3;67.2
23253;BME280;11795;47.054;15.408;2023-03-30T02:26:00;97550;;;5.1;67.4
23253;BME280;11795;47.054;15.408;2023-03-30T02:28:00;97550;;;5.1;67.7
23253;BME280;11795;47.054;15.408;2023-03-30T02:30:01;97540;;;5.2;67.2
23253;BME280;11795;47.054;15.408;2023-03-30T02:32:00;97540;;;5.2;67.5
23253;BME280;11795;47.054;15.408;2023-03-30T02:34:08;97540;;;5.4;67.0
23253;BME280;11795;47.054;15.408;2023-03-30T02:36:11;97530;;;5.2;67.2
23253;BME280;11795;47.054;15.408;2023-03-30T02:40:11;97540;;;5.3;67.3
23253;BME280;11795;47.054;15.408;2023-03-30T02:42:14;97550;;;5.2;67.7
23253;BME280;11795;47.054;15.408;2023-03-30T02:44:06;97550;;;5.5;67.6
23253;BME280;11795;47.054;15.408;2023-03-30T02:46:10;97550;;;5.3;68.0
23253;BME280;11795;47.054;15.408;2023-03-30T02:48:13;97550;;;5.2;68.3
23253;BME280;11795;47.054;15.408;2023-03-30T02:50:03;97540;;;5.4;67.8
23253;BME280;11795;47.054;15.408;2023-03-30T02:52:05;97540;;;5.4;68.1
23253;BME280;11795;47.054;15.408;2023-03-30T02:54:09;97540;;;5.4;68.2
23253;BME280;11795;47.054;15.408;2023-03-30T02:56:09;97540;;;5.2;69.3
23253;BME280;11795;47.054;15.408;2023-03-30T02:58:05;97540;;;5.1;69.6
23253;BME280;11795;47.054;15.408;2023-03-30T03:00:04;97530;;;5.2;69.5
23253;BME280;11795;47.054;15.408;2023-03-30T03:02:05;97520;;;5.1;70.1
23253;BME280;11795;47.054;15.408;2023-03-30T03:04:01;97520;;;5.3;69.6
23253;BME280;11795;47.054;15.408;2023-03-30T03:06:02;97530;;;5.1;69.8
23253;BME280;11795;47.054;15.408;2023-03-30T03:08:01;97530;;;5.1;70.1
23253;BME280;11795;47.054;15.408;2023-03-30T03:10:00;97530;;;5.3;69.5
23253;BME280;11795;47.054;15.408;2023-03-30T03:12:00;97540;;;5.2;69.9
23253;BME280;11795;47.054;15.408;2023-03-30T03:14:01;97540;;;5.4;69.8
23253;BME280;11795;47.054;15.408;2023-03-30T03:16:01;97550;;;5.2;70.1
23253;BME280;11795;47.054;15.408;2023-03-30T03:18:00;97540;;;5.1;70.5
23253;BME280;11795;47.054;15.408;2023-03-30T03:20:01;97520;;;5.3;69.9
23253;BME280;11795;47.054;15.408;2023-03-30T03:22:00;97530;;;5.2;70.1
23253;BME280;11795;47.054;15.408;2023-03-30T03:24:01;97520;;;5.3;69.8
23253;BME280;11795;47.054;15.408;2023-03-30T03:26:01;97520;;;5.2;69.9
23253;BME280;11795;47.054;15.408;2023-03-30T03:28:00;97530;;;5.1;70.2
23253;BME280;11795;47.054;15.408;2023-03-30T03:30:01;97520;;;5.2;69.6
23253;BME280;11795;47.054;15.408;2023-03-30T03:32:00;97520;;;5.1;70.0
23253;BME280;11795;47.054;15.408;2023-03-30T03:34:00;97510;;;5.3;69.6
23253;BME280;11795;47.054;15.408;2023-03-30T03:36:00;97500;;;5.1;69.7
23253;BME280;11795;47.054;15.408;2023-03-30T03:38:00;97490;;;5.1;69.9
23253;BME280;11795;47.054;15.408;2023-03-30T03:40:00;97490;;;5.3;69.1
23253;BME280;11795;47.054;15.408;2023-03-30T03:42:00;97500;;;5.1;69.5
23253;BME280;11795;47.054;15.408;2023-03-30T03:44:00;97510;;;5.3;69.3
23253;BME280;11795;47.054;15.408;2023-03-30T03:46:00;97500;;;5.1;69.4
23253;BME280;11795;47.054;15.408;2023-03-30T03:48:00;97500;;;5.0;69.8
23253;BME280;11795;47.054;15.408;2023-03-30T03:50:03;97510;;;5.2;69.4
23253;BME280;11795;47.054;15.408;2023-03-30T03:52:00;97520;;;5.1;69.7
23253;BME280;11795;47.054;15.408;2023-03-30T03:54:00;97510;;;5.2;69.8
23253;BME280;11795;47.054;15.408;2023-03-30T03:56:01;97520;;;5.1;69.9
23253;BME280;11795;47.054;15.408;2023-03-30T03:58:01;97510;;;5.0;70.4
23253;BME280;11795;47.054;15.408;2023-03-30T04:00:00;97510;;;5.1;70.0
23253;BME280;11795;47.054;15.408;2023-03-30T04:02:00;97510;;;4.9;70.5
23253;BME280;11795;47.054;15.408;2023-03-30T04:04:00;97520;;;5.1;70.2
23253;BME280;11795;47.054;15.408;2023-03-30T04:06:01;97510;;;4.9;70.5
23253;BME280;11795;47.054;15.408;2023-03-30T04:08:00;97510;;;4.8;70.9
23253;BME280;11795;47.054;15.408;2023-03-30T04:10:00;97520;;;4.9;70.2
23253;BME280;11795;47.054;15.408;2023-03-30T04:12:00;97510;;;4.8;70.5
23253;BME280;11795;47.054;15.408;2023-03-30T04:14:00;97510;;;4.9;70.6
23253;BME280;11795;47.054;15.408;2023-03-30T04:16:00;97510;;;4.8;70.8
23253;BME280;11795;47.054;15.408;2023-03-30T04:18:01;97500;;;4.7;71.1
23253;BME280;11795;47.054;15.408;2023-03-30T04:20:07;97500;;;4.9;70.6
23253;BME280;11795;47.054;15.408;2023-03-30T04:22:00;97490;;;4.7;71.2
23253;BME280;11795;47.054;15.408;2023-03-30T04:24:00;97480;;;4.9;70.8
23253;BME280;11795;47.054;15.408;2023-03-30T04:26:02;97490;;;4.8;70.9
23253;BME280;11795;47.054;15.408;2023-03-30T04:28:00;97490;;;4.7;71.2
23253;BME280;11795;47.054;15.408;2023-03-30T04:30:01;97500;;;4.8;70.8
23253;BME280;11795;47.054;15.408;2023-03-30T04:32:02;97500;;;4.7;71.2
23253;BME280;11795;47.054;15.408;2023-03-30T04:34:03;97510;;;4.9;71.0
23253;BME280;11795;47.054;15.408;2023-03-30T04:36:00;97510;;;4.8;71.0
23253;BME280;11795;47.054;15.408;2023-03-30T04:38:01;97510;;;4.7;71.4
23253;BME280;11795;47.054;15.408;2023-03-30T04:40:02;97510;;;4.8;71.0
23253;BME280;11795;47.054;15.408;2023-03-30T04:42:01;97500;;;4.7;71.7
23253;BME280;11795;47.054;15.408;2023-03-30T04:44:02;97500;;;4.8;71.6
23253;BME280;11795;47.054;15.408;2023-03-30T04:46:00;97490;;;4.7;72.1
23253;BME280;11795;47.054;15.408;2023-03-30T04:48:00;97500;;;4.6;72.3
23253;BME280;11795;47.054;15.408;2023-03-30T04:50:00;97500;;;4.8;71.6
23253;BME280;11795;47.054;15.408;2023-03-30T04:52:00;97500;;;4.7;71.9
23253;BME280;11795;47.054;15.408;2023-03-30T04:54:01;97490;;;4.9;71.7
23253;BME280;11795;47.054;15.408;2023-03-30T04:56:00;97490;;;4.7;72.0
23253;BME280;11795;47.054;15.408;2023-03-30T04:58:00;97500;;;4.7;72.3
23253;BME280;11795;47.054;15.408;2023-03-30T05:00:00;97490;;;4.9;71.8
23253;BME280;11795;47.054;15.408;2023-03-30T05:02:00;97500;;;4.8;72.1
23253;BME280;11795;47.054;15.408;2023-03-30T05:04:00;97500;;;5.0;71.9
23253;BME280;11795;47.054;15.408;2023-03-30T05:06:01;97500;;;4.9;72.1
23253;BME280;11795;47.054;15.408;2023-03-30T05:08:01;97500;;;4.8;72.5
23253;BME280;11795;47.054;15.408;2023-03-30T05:10:00;97500;;;5.0;72.1
23253;BME280;11795;47.054;15.408;2023-03-30T05:12:01;97500;;;5.0;72.3
23253;BME280;11795;47.054;15.408;2023-03-30T05:14:00;97500;;;5.1;72.4
23253;BME280;11795;47.054;15.408;2023-03-30T05:16:00;97510;;;5.0;72.7
23253;BME280;11795;47.054;15.408;2023-03-30T05:18:00;97500;;;4.9;73.0
23253;BME280;11795;47.054;15.408;2023-03-30T05:20:07;97500;;;5.1;72.5
23253;BME280;11795;47.054;15.408;2023-03-30T05:22:00;97510;;;5.1;72.7
23253;BME280;11795;47.054;15.408;2023-03-30T05:24:00;97500;;;5.2;72.3
23253;BME280;11795;47.054;15.408;2023-03-30T05:26:02;97500;;;5.3;71.2
23253;BME280;11795;47.054;15.408;2023-03-30T05:28:01;97500;;;5.3;71.5
23253;BME280;11795;47.054;15.408;2023-03-30T05:30:01;97500;;;5.5;71.2
23253;BME280;11795;47.054;15.408;2023-03-30T05:32:00;97500;;;5.3;71.2
23253;BME280;11795;47.054;15.408;2023-03-30T05:34:00;97500;;;5.4;71.5
23253;BME280;11795;47.054;15.408;2023-03-30T05:36:00;97500;;;5.4;71.3
23253;BME280;11795;47.054;15.408;2023-03-30T05:38:00;97500;;;5.3;71.5
23253;BME280;11795;47.054;15.408;2023-03-30T05:40:01;97500;;;5.6;70.9
23253;BME280;11795;47.054;15.408;2023-03-30T05:42:01;97490;;;5.5;71.3
23253;BME280;11795;47.054;15.408;2023-03-30T05:44:00;97490;;;5.7;71.1
23253;BME280;11795;47.054;15.408;2023-03-30T05:46:02;97490;;;5.7;71.0
23253;BME280;11795;47.054;15.408;2023-03-30T05:48:00;97490;;;5.8;70.5
23253;BME280;11795;47.054;15.408;2023-03-30T05:50:01;97500;;;5.8;70.2
23253;BME280;11795;47.054;15.408;2023-03-30T05:52:00;97500;;;5.8;70.8
23253;BME280;11795;47.054;15.408;2023-03-30T05:54:00;97490;;;5.9;70.6
23253;BME280;11795;47.054;15.408;2023-03-30T05:56:01;97490;;;5.9;70.2
23253;BME280;11795;47.054;15.408;2023-03-30T05:58:00;97500;;;5.9;70.6
23253;BME280;11795;47.054;15.408;2023-03-30T06:00:00;97510;;;6.1;70.3
23253;BME280;11795;47.054;15.408;2023-03-30T06:02:00;97500;;;6.0;70.4
23253;BME280;11795;47.054;15.408;2023-03-30T06:04:00;97490;;;6.2;69.7
23253;BME280;11795;47.054;15.408;2023-03-30T06:06:00;97510;;;6.1;70.1
23253;BME280;11795;47.054;15.408;2023-03-30T06:08:00;97500;;;6.1;70.0
23253;BME280;11795;47.054;15.408;2023-03-30T06:10:00;97510;;;6.1;69.9
23253;BME280;11795;47.054;15.408;2023-03-30T06:12:02;97520;;;6.0;70.5
23253;BME280;11795;47.054;15.408;2023-03-30T06:14:00;97510;;;6.2;70.6
23253;BME280;11795;47.054;15.408;2023-03-30T06:16:00;97520;;;6.1;70.3
23253;BME280;11795;47.054;15.408;2023-03-30T06:18:03;97520;;;6.1;70.2
23253;BME280;11795;47.054;15.408;2023-03-30T06:20:00;97520;;;6.3;69.7
23253;BME280;11795;47.054;15.408;2023-03-30T06:22:00;97520;;;6.2;69.8
23253;BME280;11795;47.054;15.408;2023-03-30T06:24:01;97510;;;6.3;69.7
23253;BME280;11795;47.054;15.408;2023-03-30T06:26:00;97500;;;6.4;67.9
23253;BME280;11795;47.054;15.408;2023-03-30T06:28:00;97490;;;6.4;67.5
23253;BME280;11795;47.054;15.408;2023-03-30T06:30:01;97490;;;6.4;67.3
23253;BME280;11795;47.054;15.408;2023-03-30T06:32:02;97480;;;6.3;67.7
23253;BME280;11795;47.054;15.408;2023-03-30T06:34:00;97490;;;6.3;67.7
23253;BME280;11795;47.054;15.408;2023-03-30T06:36:00;97490;;;6.2;68.3
23253;BME280;11795;47.054;15.408;2023-03-30T06:38:00;97480;;;6.1;68.7
23253;BME280;11795;47.054;15.408;2023-03-30T06:40:00;97470;;;6.3;68.3
23253;BME280;11795;47.054;15.408;2023-03-30T06:42:00;97470;;;6.2;68.5
23253;BME280;11795;47.054;15.408;2023-03-30T06:44:00;97470;;;6.3;68.4
23253;BME280;11795;47.054;15.408;2023-03-30T06:46:00;97470;;;6.3;67.9
23253;BME280;11795;47.054;15.408;2023-03-30T06:48:01;97480;;;6.2;68.5
23253;BME280;11795;47.054;15.408;2023-03-30T06:50:00;97480;;;6.4;68.1
23253;BME280;11795;47.054;15.408;2023-03-30T06:52:00;97490;;;6.4;68.6
23253;BME280;11795;47.054;15.408;2023-03-30T06:54:00;97490;;;6.4;68.3
23253;BME280;11795;47.054;15.408;2023-03-30T06:56:00;97490;;;6.4;68.0
23253;BME280;11795;47.054;15.408;2023-03-30T06:58:00;97490;;;6.4;68.2
23253;BME280;11795;47.054;15.408;2023-03-30T07:00:01;97490;;;6.6;67.6
23253;BME280;11795;47.054;15.408;2023-03-30T07:02:00;97500;;;6.6;67.9
23253;BME280;11795;47.054;15.408;2023-03-30T07:04:01;97500;;;6.8;67.6
23253;BME280;11795;47.054;15.408;2023-03-30T07:06:00;97500;;;6.8;66.8
23253;BME280;11795;47.054;15.408;2023-03-30T07:08:00;97510;;;6.8;66.8
23253;BME280;11795;47.054;15.408;2023-03-30T07:10:02;97500;;;7.0;65.6
23253;BME280;11795;47.054;15.408;2023-03-30T07:12:00;97500;;;6.9;66.2
23253;BME280;11795;47.054;15.408;2023-03-30T07:14:01;97500;;;7.0;66.2
23253;BME280;11795;47.054;15.408;2023-03-30T07:16:00;97490;;;7.2;64.8
23253;BME280;11795;47.054;15.408;2023-03-30T07:18:00;97490;;;7.2;64.2
23253;BME280;11795;47.054;15.408;2023-03-30T07:20:01;97490;;;7.3;63.8
23253;BME280;11795;47.054;15.408;2023-03-30T07:22:01;97490;;;7.2;64.9
23253;BME280;11795;47.054;15.408;2023-03-30T07:24:00;97490;;;7.2;64.6
23253;BME280;11795;47.054;15.408;2023-03-30T07:26:01;97490;;;7.3;64.3
23253;BME280;11795;47.054;15.408;2023-03-30T07:28:01;97490;;;7.4;64.6
23253;BME280;11795;47.054;15.408;2023-03-30T07:30:00;97490;;;7.7;63.9
23253;BME280;11795;47.054;15.408;2023-03-30T07:32:00;97490;;;7.8;63.5
23253;BME280;11795;47.054;15.408;2023-03-30T07:34:02;97490;;;8.0;62.8
23253;BME280;11795;47.054;15.408;2023-03-30T07:36:00;97490;;;8.1;61.9
23253;BME280;11795;47.054;15.408;2023-03-30T07:38:00;97480;;;8.2;60.7
23253;BME280;11795;47.054;15.408;2023-03-30T07:40:00;97480;;;8.3;60.5
23253;BME280;11795;47.054;15.408;2023-03-30T07:42:00;97470;;;8.4;60.7
23253;BME280;11795;47.054;15.408;2023-03-30T07:44:00;97470;;;8.5;60.9
23253;BME280;11795;47.054;15.408;2023-03-30T07:46:00;97470;;;8.8;60.6
23253;BME280;11795;47.054;15.408;2023-03-30T07:48:00;97470;;;9.1;60.6
23253;BME280;11795;47.054;15.408;2023-03-30T07:50:01;97460;;;9.6;60.1
23253;BME280;11795;47.054;15.408;2023-03-30T07:52:01;97470;;;9.9;59.4
23253;BME280;11795;47.054;15.408;2023-03-30T07:54:00;97470;;;10.2;57.6
23253;BME280;11795;47.054;15.408;2023-03-30T07:56:01;97460;;;10.4;56.3
23253;BME280;11795;47.054;15.408;2023-03-30T07:58:00;97470;;;10.4;54.9
23253;BME280;11795;47.054;15.408;2023-03-30T08:00:00;97460;;;10.7;54.5
23253;BME280;11795;47.054;15.408;2023-03-30T08:02:00;97470;;;10.7;55.0
23253;BME280;11795;47.054;15.408;2023-03-30T08:04:01;97470;;;10.9;55.0
23253;BME280;11795;47.054;15.408;2023-03-30T08:06:04;97480;;;11.1;52.6
23253;BME280;11795;47.054;15.408;2023-03-30T08:08:01;97470;;;11.2;52.3
23253;BME280;11795;47.054;15.408;2023-03-30T08:10:00;97470;;;11.5;51.4
23253;BME280;11795;47.054;15.408;2023-03-30T08:12:01;97460;;;11.6;51.7
23253;BME280;11795;47.054;15.408;2023-03-30T08:14:01;97450;;;11.9;51.2
23253;BME280;11795;47.054;15.408;2023-03-30T08:16:00;97440;;;12.1;50.2
23253;BME280;11795;47.054;15.408;2023-03-30T08:18:07;97440;;;12.2;50.1
23253;BME280;11795;47.054;15.408;2023-03-30T08:20:01;97440;;;12.6;49.9
23253;BME280;11795;47.054;15.408;2023-03-30T08:22:01;97440;;;12.7;49.4
23253;BME280;11795;47.054;15.408;2023-03-30T08:24:01;97440;;;12.8;48.4
23253;BME280;11795;47.054;15.408;2023-03-30T08:26:00;97430;;;12.9;48.1
23253;BME280;11795;47.054;15.408;2023-03-30T08:28:01;97430;;;13.1;48.4
23253;BME280;11795;47.054;15.408;2023-03-30T08:30:01;97430;;;13.6;48.1
23253;BME280;11795;47.054;15.408;2023-03-30T08:32:00;97430;;;13.9;46.2
23253;BME280;11795;47.054;15.408;2023-03-30T08:34:03;97420;;;14.0;46.3
23253;BME280;11795;47.054;15.408;2023-03-30T08:36:00;97410;;;14.3;46.7
23253;BME280;11795;47.054;15.408;2023-03-30T08:38:00;97420;;;14.4;46.4
23253;BME280;11795;47.054;15.408;2023-03-30T08:40:00;97420;;;14.5;45.3
23253;BME280;11795;47.054;15.408;2023-03-30T08:42:09;97420;;;14.3;45.6
23253;BME280;11795;47.054;15.408;2023-03-30T08:44:01;97420;;;14.5;45.4
23253;BME280;11795;47.054;15.408;2023-03-30T08:46:01;97430;;;14.5;45.6
23253;BME280;11795;47.054;15.408;2023-03-30T08:48:02;97420;;;14.5;45.9
23253;BME280;11795;47.054;15.408;2023-03-30T08:50:05;97420;;;14.5;45.6
23253;BME280;11795;47.054;15.408;2023-03-30T08:52:02;97410;;;14.4;46.5
23253;BME280;11795;47.054;15.408;2023-03-30T08:54:03;97410;;;14.4;45.8
23253;BME280;11795;47.054;15.408;2023-03-30T08:56:05;97410;;;14.4;45.2
23253;BME280;11795;47.054;15.408;2023-03-30T08:58:03;97410;;;14.1;45.7
23253;BME280;11795;47.054;15.408;2023-03-30T09:00:11;97410;;;14.1;46.6
23253;BME280;11795;47.054;15.408;2023-03-30T09:02:03;97400;;;14.0;46.7
23253;BME280;11795;47.054;15.408;2023-03-30T09:04:08;97400;;;14.0;46.3
23253;BME280;11795;47.054;15.408;2023-03-30T09:06:07;97390;;;13.9;46.5
23253;BME280;11795;47.054;15.408;2023-03-30T09:08:04;97400;;;14.0;46.7
23253;BME280;11795;47.054;15.408;2023-03-30T09:10:01;97400;;;14.2;46.7
23253;BME280;11795;47.054;15.408;2023-03-30T09:12:04;97400;;;14.2;46.9
23253;BME280;11795;47.054;15.408;2023-03-30T09:14:05;97400;;;14.2;46.1
23253;BME280;11795;47.054;15.408;2023-03-30T09:16:05;97400;;;14.4;46.0
23253;BME280;11795;47.054;15.408;2023-03-30T09:18:05;97390;;;14.5;45.8
23253;BME280;11795;47.054;15.408;2023-03-30T09:20:05;97390;;;14.8;45.6
23253;BME280;11795;47.054;15.408;2023-03-30T09:22:02;97390;;;14.8;45.8
23253;BME280;11795;47.054;15.408;2023-03-30T09:24:09;97380;;;14.9;45.9
23253;BME280;11795;47.054;15.408;2023-03-30T09:26:09;97390;;;14.9;44.9
23253;BME280;11795;47.054;15.408;2023-03-30T09:28:05;97400;;;14.8;45.2
23253;BME280;11795;47.054;15.408;2023-03-30T09:30:15;97390;;;14.9;45.0
23253;BME280;11795;47.054;15.408;2023-03-30T09:32:03;97390;;;14.8;45.5
23253;BME280;11795;47.054;15.408;2023-03-30T09:34:03;97390;;;14.9;45.6
23253;BME280;11795;47.054;15.408;2023-03-30T09:36:07;97390;;;14.9;45.2
23253;BME280;11795;47.054;15.408;2023-03-30T09:38:01;97390;;;14.9;45.0
23253;BME280;11795;47.054;15.408;2023-03-30T09:40:16;97380;;;14.9;45.4
23253;BME280;11795;47.054;15.408;2023-03-30T09:42:12;97380;;;14.9;45.8
23253;BME280;11795;47.054;15.408;2023-03-30T09:44:01;97380;;;15.0;45.3
23253;BME280;11795;47.054;15.408;2023-03-30T09:46:04;97380;;;15.1;45.0
23253;BME280;11795;47.054;15.408;2023-03-30T09:48:03;97380;;;14.9;45.4
23253;BME280;11795;47.054;15.408;2023-03-30T09:50:03;97380;;;15.0;45.4
23253;BME280;11795;47.054;15.408;2023-03-30T09:52:04;97390;;;15.0;45.1
23253;BME280;11795;47.054;15.408;2023-03-30T09:54:02;97390;;;14.8;45.4
23253;BME280;11795;47.054;15.408;2023-03-30T09:56:07;97390;;;14.8;45.7
23253;BME280;11795;47.054;15.408;2023-03-30T09:58:12;97390;;;14.6;46.2
23253;BME280;11795;47.054;15.408;2023-03-30T10:00:21;97390;;;14.8;46.6
23253;BME280;11795;47.054;15.408;2023-03-30T10:02:09;97380;;;14.6;46.6
23253;BME280;11795;47.054;15.408;2023-03-30T10:04:05;97380;;;14.6;46.8
23253;BME280;11795;47.054;15.408;2023-03-30T10:06:04;97380;;;14.6;46.7
23253;BME280;11795;47.054;15.408;2023-03-30T10:08:02;97370;;;14.4;47.5
23253;BME280;11795;47.054;15.408;2023-03-30T10:10:12;97370;;;14.6;47.4
23253;BME280;11795;47.054;15.408;2023-03-30T10:12:01;97380;;;14.6;47.5
23253;BME280;11795;47.054;15.408;2023-03-30T10:14:00;97380;;;14.7;47.4
23253;BME280;11795;47.054;15.408;2023-03-30T10:16:04;97370;;;14.8;46.9
23253;BME280;11795;47.054;15.408;2023-03-30T10:18:01;97370;;;14.8;47.1
23253;BME280;11795;47.054;15.408;2023-03-30T10:20:15;97370;;;15.0;46.7
23253;BME280;11795;47.054;15.408;2023-03-30T10:22:13;97370;;;14.9;46.9
23253;BME280;11795;47.054;15.408;2023-03-30T10:24:03;97360;;;14.9;46.5
23253;BME280;11795;47.054;15.408;2023-03-30T10:26:02;97360;;;14.9;46.6
23253;BME280;11795;47.054;15.408;2023-03-30T10:28:04;97350;;;14.8;47.1
23253;BME280;11795;47.054;15.408;2023-03-30T10:30:08;97340;;;14.9;46.6
23253;BME280;11795;47.054;15.408;2023-03-30T10:32:08;97340;;;14.8;46.6
23253;BME280;11795;47.054;15.408;2023-03-30T10:34:02;97350;;;14.9;46.1
23253;BME280;11795;47.054;15.408;2023-03-30T10:36:01;97350;;;14.8;45.7
23253;BME280;11795;47.054;15.408;2023-03-30T10:38:02;97330;;;14.6;46.5
23253;BME280;11795;47.054;15.408;2023-03-30T10:40:02;97330;;;14.8;46.2
23253;BME280;11795;47.054;15.408;2023-03-30T10:42:02;97320;;;14.7;46.5
23253;BME280;11795;47.054;15.408;2023-03-30T10:44:04;97310;;;14.6;46.5
23253;BME280;11795;47.054;15.408;2023-03-30T10:46:05;97310;;;14.7;46.7
23253;BME280;11795;47.054;15.408;2023-03-30T10:48:11;97310;;;14.6;47.4
23253;BME280;11795;47.054;15.408;2023-03-30T10:50:08;97310;;;14.9;47.3
23253;BME280;11795;47.054;15.408;2023-03-30T10:52:06;97320;;;14.8;49.6
23253;BME280;11795;47.054;15.408;2023-03-30T10:54:06;97330;;;14.8;47.3
23253;BME280;11795;47.054;15.408;2023-03-30T10:56:07;97320;;;14.9;47.3
23253;BME280;11795;47.054;15.408;2023-03-30T10:58:09;97310;;;14.7;48.1
23253;BME280;11795;47.054;15.408;2023-03-30T11:00:08;97320;;;14.8;48.2
23253;BME280;11795;47.054;15.408;2023-03-30T11:02:15;97320;;;14.5;49.1
23253;BME280;11795;47.054;15.408;2023-03-30T11:04:04;97320;;;14.5;47.7
23253;BME280;11795;47.054;15.408;2023-03-30T11:06:05;97340;;;14.5;48.0
23253;BME280;11795;47.054;15.408;2023-03-30T11:08:03;97340;;;14.4;48.5
23253;BME280;11795;47.054;15.408;2023-03-30T11:10:04;97340;;;14.4;49.0
23253;BME280;11795;47.054;15.408;2023-03-30T11:12:04;97340;;;14.2;48.4
23253;BME280;11795;47.054;15.408;2023-03-30T11:14:04;97350;;;14.1;48.7
23253;BME280;11795;47.054;15.408;2023-03-30T11:16:03;97360;;;14.0;48.5
23253;BME280;11795;47.054;15.408;2023-03-30T11:18:04;97360;;;13.9;48.9
23253;BME280;11795;47.054;15.408;2023-03-30T11:20:09;97360;;;14.0;48.7
23253;BME280;11795;47.054;15.408;2023-03-30T11:22:03;97360;;;13.9;48.6
23253;BME280;11795;47.054;15.408;2023-03-30T11:24:05;97360;;;13.9;48.9